Time;durP1;ratioP1;P1;durP2;ratioP2;P2;SDS_P1;SDS_P2;PMS_P1;PMS_P2;Temp;Humidity;BMP_temperature;BMP_pressure;BME280_temperature;BME280_humidity;BME280_pressure;Samples;Min_cycle;Max_cycle;Signal;HPM_P1;HPM_P2
2021/08/01 00:00:43;;;;;;;34.25;21.00;;;;;;;25.91;67.65;99548.16;5038371;28;20028;-70
2021/08/01 00:03:09;;;;;;;34.45;20.63;;;;;;;25.94;67.57;99572.06;5035277;28;20060;-70
2021/08/01 00:05:34;;;;;;;37.20;21.52;;;;;;;25.89;67.77;99567.44;5037762;28;20030;-70
2021/08/01 00:07:59;;;;;;;34.88;20.38;;;;;;;25.77;68.23;99567.66;5039784;28;20053;-70
2021/08/01 00:10:25;;;;;;;30.75;20.83;;;;;;;25.67;68.62;99559.50;5040751;28;20072;-70
2021/08/01 00:12:50;;;;;;;32.55;21.35;;;;;;;25.72;68.38;99578.50;5039498;28;20042;-70
2021/08/01 00:15:16;;;;;;;33.78;20.10;;;;;;;25.65;68.33;99583.34;5039296;28;20017;-69
2021/08/01 00:17:41;;;;;;;32.80;21.63;;;;;;;25.66;68.71;99576.03;5037958;28;20041;-70
2021/08/01 00:20:07;;;;;;;29.52;20.77;;;;;;;25.85;67.97;99565.50;5039398;28;20025;-70
2021/08/01 00:22:33;;;;;;;34.25;20.48;;;;;;;26.15;66.59;99570.22;5040428;28;20112;-70
2021/08/01 00:25:00;;;;;;;31.30;20.10;;;;;;;26.18;66.19;99553.41;5039207;28;20089;-70
2021/08/01 00:27:25;;;;;;;33.33;22.75;;;;;;;26.27;66.23;99568.91;5036831;28;20040;-70
2021/08/01 00:29:51;;;;;;;27.73;21.98;;;;;;;26.53;65.37;99566.25;5039976;28;20029;-70
2021/08/01 00:32:16;;;;;;;39.00;23.90;;;;;;;26.65;65.10;99555.91;5039290;28;20034;-70
2021/08/01 00:34:42;;;;;;;37.15;21.98;;;;;;;26.61;64.86;99552.94;5040073;28;20037;-70
2021/08/01 00:37:07;;;;;;;35.03;22.77;;;;;;;26.75;63.95;99544.25;5039270;28;20051;-70
2021/08/01 00:39:32;;;;;;;37.50;23.52;;;;;;;26.72;64.03;99551.84;5039743;28;20072;-70
2021/08/01 00:41:58;;;;;;;38.22;23.90;;;;;;;26.74;63.95;99543.44;5038782;28;20036;-70
2021/08/01 00:44:24;;;;;;;55.28;23.73;;;;;;;26.60;63.96;99523.34;5038827;28;20334;-70
2021/08/01 00:46:49;;;;;;;39.92;23.80;;;;;;;26.89;63.20;99550.75;5040073;28;20040;-70
2021/08/01 00:49:15;;;;;;;48.03;25.95;;;;;;;26.98;62.78;99549.13;5038651;28;20354;-70
2021/08/01 00:51:40;;;;;;;42.13;25.33;;;;;;;26.98;62.81;99543.69;5040407;28;20033;-70
2021/08/01 00:54:06;;;;;;;46.05;24.95;;;;;;;26.96;62.60;99538.50;5037337;28;20025;-70
2021/08/01 00:56:32;;;;;;;42.97;25.77;;;;;;;26.88;62.85;99532.81;5038992;28;20076;-70
2021/08/01 00:58:57;;;;;;;43.78;24.38;;;;;;;27.02;62.13;99512.16;5040166;28;20075;-70
2021/08/01 01:01:47;;;;;;;46.33;25.38;;;;;;;26.92;63.00;99512.16;5038681;28;20036;-70
2021/08/01 01:04:26;;;;;;;45.83;24.55;;;;;;;27.12;62.43;99528.47;5039446;28;20064;-70
2021/08/01 01:07:00;;;;;;;35.00;23.08;;;;;;;27.18;62.13;99540.16;5038827;28;20034;-71
2021/08/01 01:09:31;;;;;;;36.08;23.45;;;;;;;27.23;61.72;99548.28;5038062;28;20039;-70
2021/08/01 01:12:02;;;;;;;37.22;23.73;;;;;;;27.01;62.78;99545.88;5038659;28;20033;-70
2021/08/01 01:14:29;;;;;;;44.30;23.70;;;;;;;27.09;62.33;99544.53;5039713;28;20079;-70
2021/08/01 01:16:59;;;;;;;37.38;23.63;;;;;;;27.12;61.49;99530.38;5025797;28;20033;-70
2021/08/01 01:19:50;;;;;;;33.78;22.63;;;;;;;27.21;61.39;99550.47;5038777;28;20044;-70
2021/08/01 01:22:27;;;;;;;38.67;23.60;;;;;;;27.13;61.84;99543.69;5037553;28;20033;-70
2021/08/01 01:24:53;;;;;;;40.47;25.55;;;;;;;27.15;61.92;99537.97;5038035;28;20093;-70
2021/08/01 01:27:30;;;;;;;44.30;24.85;;;;;;;27.33;60.94;99540.91;5038467;28;20315;-70
2021/08/01 01:30:02;;;;;;;43.33;22.08;;;;;;;27.37;60.61;99533.03;5039281;28;20025;-70
2021/08/01 01:32:38;;;;;;;38.90;19.92;;;;;;;27.31;60.41;99540.38;5039523;28;20041;-70
2021/08/01 01:35:21;;;;;;;35.20;18.48;;;;;;;27.10;60.91;99525.22;5038057;28;20250;-70
2021/08/01 01:37:54;;;;;;;31.65;17.92;;;;;;;26.88;61.50;99525.47;5038466;28;20422;-70
2021/08/01 01:40:22;;;;;;;32.10;17.02;;;;;;;26.93;61.16;99519.22;5037881;28;20026;-70
2021/08/01 01:42:53;;;;;;;33.70;17.27;;;;;;;27.00;61.15;99515.16;5038812;28;20045;-70
2021/08/01 01:45:19;;;;;;;32.97;17.10;;;;;;;27.22;60.58;99519.47;5038050;28;20029;-70
2021/08/01 01:47:46;;;;;;;36.53;16.67;;;;;;;27.04;60.38;99505.38;5037940;28;20108;-70
2021/08/01 01:50:12;;;;;;;29.00;16.88;;;;;;;27.45;59.10;99512.59;5035017;28;20036;-70
2021/08/01 01:52:39;;;;;;;31.20;17.73;;;;;;;27.31;59.65;99520.53;5038728;28;20037;-70
2021/08/01 01:55:05;;;;;;;34.42;18.02;;;;;;;27.01;60.89;99524.94;5037523;28;20029;-70
2021/08/01 01:57:30;;;;;;;31.70;18.10;;;;;;;26.91;61.20;99526.84;5033622;28;20040;-70
2021/08/01 01:59:58;;;;;;;28.02;17.77;;;;;;;27.07;60.87;99523.06;5037093;28;20053;-70
2021/08/01 02:02:24;;;;;;;34.45;18.63;;;;;;;26.85;61.27;99522.50;5037577;28;20300;-70
2021/08/01 02:04:49;;;;;;;33.50;18.38;;;;;;;26.99;60.88;99520.88;5038304;28;20031;-70
2021/08/01 02:07:15;;;;;;;31.20;19.38;;;;;;;26.75;61.88;99526.03;5037289;28;20315;-70
2021/08/01 02:09:49;;;;;;;33.50;19.88;;;;;;;26.55;63.03;99528.78;5040609;28;20044;-70
2021/08/01 02:12:26;;;;;;;32.85;20.80;;;;;;;26.53;63.23;99534.47;5041003;28;20083;-70
2021/08/01 02:15:08;;;;;;;32.28;20.13;;;;;;;26.66;63.00;99531.22;5037242;28;20247;-70
2021/08/01 02:17:55;;;;;;;29.05;19.33;;;;;;;26.37;63.05;99543.69;5034594;28;20076;-70
2021/08/01 02:20:27;;;;;;;32.03;18.27;;;;;;;25.99;63.00;99542.22;5035461;28;20038;-70
2021/08/01 02:22:53;;;;;;;26.80;17.73;;;;;;;25.97;62.13;99528.94;5034599;28;20037;-70
2021/08/01 02:25:20;;;;;;;24.70;17.27;;;;;;;25.90;61.63;99530.25;5037762;28;20052;-70
2021/08/01 02:27:47;;;;;;;22.85;15.32;;;;;;;26.12;60.77;99543.63;5037323;28;20037;-70
2021/08/01 02:30:14;;;;;;;26.70;16.55;;;;;;;26.01;60.75;99546.31;5038262;28;20029;-70
2021/08/01 02:32:40;;;;;;;31.98;18.02;;;;;;;26.24;60.97;99536.06;5037092;28;20037;-70
2021/08/01 02:35:07;;;;;;;33.10;18.90;;;;;;;26.35;60.95;99551.31;5037238;28;20052;-70
2021/08/01 02:37:35;;;;;;;31.70;20.73;;;;;;;26.31;61.34;99548.28;5038005;28;20057;-70
2021/08/01 02:40:01;;;;;;;32.72;19.92;;;;;;;26.29;60.89;99545.03;5036098;28;20041;-70
2021/08/01 02:42:28;;;;;;;37.13;20.27;;;;;;;25.96;61.71;99551.72;5036902;28;20056;-70
2021/08/01 02:44:58;;;;;;;32.63;20.08;;;;;;;25.58;62.85;99558.34;5038745;28;20048;-70
2021/08/01 02:47:26;;;;;;;35.58;19.58;;;;;;;25.56;62.76;99557.78;5038721;28;20047;-70
2021/08/01 02:49:54;;;;;;;32.63;19.77;;;;;;;25.53;62.77;99555.59;5036462;28;20037;-71
2021/08/01 02:52:26;;;;;;;28.05;20.10;;;;;;;25.48;63.42;99558.28;5036907;28;20021;-70
2021/08/01 02:54:52;;;;;;;31.65;20.58;;;;;;;25.45;63.43;99550.69;5037670;28;20033;-70
2021/08/01 02:57:18;;;;;;;32.38;21.20;;;;;;;25.42;63.79;99557.44;5036765;28;20041;-70
2021/08/01 02:59:45;;;;;;;38.92;22.35;;;;;;;25.72;63.26;99542.41;5036861;28;20057;-70
2021/08/01 03:02:11;;;;;;;33.50;21.77;;;;;;;25.85;62.97;99539.19;5039062;28;20041;-70
2021/08/01 03:04:39;;;;;;;32.60;21.67;;;;;;;25.87;63.15;99560.63;5040240;28;20033;-70
2021/08/01 03:07:07;;;;;;;38.05;21.35;;;;;;;26.01;62.54;99557.19;5037139;28;20068;-70
2021/08/01 03:09:32;;;;;;;37.42;21.58;;;;;;;26.04;62.29;99553.13;5037000;28;20033;-70
2021/08/01 03:12:16;;;;;;;41.30;22.92;;;;;;;26.13;61.92;99550.69;5037711;28;20274;-70
2021/08/01 03:14:42;;;;;;;48.17;23.17;;;;;;;26.03;61.70;99540.63;5037459;28;20030;-70
2021/08/01 03:17:07;;;;;;;39.25;22.10;;;;;;;26.01;61.90;99557.19;5037144;28;20036;-70
2021/08/01 03:19:35;;;;;;;32.95;20.67;;;;;;;25.93;62.25;99568.53;5038029;28;20079;-70
2021/08/01 03:22:01;;;;;;;30.30;21.15;;;;;;;25.72;63.40;99553.25;5039522;28;20045;-70
2021/08/01 03:24:27;;;;;;;33.50;21.10;;;;;;;25.90;62.49;99551.97;5031063;28;20180;-70
2021/08/01 03:26:52;;;;;;;30.45;18.73;;;;;;;25.79;61.43;99551.13;5037759;28;20067;-70
2021/08/01 03:29:17;;;;;;;29.08;18.17;;;;;;;25.62;61.83;99564.84;5034525;28;20025;-70
2021/08/01 03:31:43;;;;;;;30.15;16.17;;;;;;;25.36;62.62;99569.34;5037785;28;20043;-70
2021/08/01 03:34:08;;;;;;;28.92;14.68;;;;;;;25.43;61.68;99564.50;5036473;28;20034;-70
2021/08/01 03:36:35;;;;;;;22.67;14.70;;;;;;;25.49;61.07;99559.91;5036457;28;20083;-70
2021/08/01 03:39:00;;;;;;;28.77;14.35;;;;;;;25.31;61.04;99547.63;5037456;28;20037;-70
2021/08/01 03:41:28;;;;;;;27.13;14.80;;;;;;;25.51;60.60;99552.34;5036452;28;20036;-70
2021/08/01 03:43:54;;;;;;;25.20;14.10;;;;;;;25.59;60.67;99545.59;5033479;28;20048;-70
2021/08/01 03:46:19;;;;;;;24.58;13.20;;;;;;;25.62;60.21;99540.44;5037638;28;20303;-70
2021/08/01 03:48:45;;;;;;;35.45;13.57;;;;;;;25.85;59.41;99539.19;5039432;28;20030;-70
2021/08/01 03:51:10;;;;;;;31.52;12.88;;;;;;;25.82;58.46;99500.94;5043151;28;20083;-70
2021/08/01 03:53:36;;;;;;;18.58;12.07;;;;;;;26.05;57.80;99535.75;5040649;28;20037;-70
2021/08/01 03:56:03;;;;;;;25.45;12.32;;;;;;;25.88;58.08;99518.88;5040025;28;20029;-70
2021/08/01 03:58:29;;;;;;;22.27;11.63;;;;;;;25.92;57.71;99530.81;5037364;28;20041;-70
2021/08/01 04:00:54;;;;;;;26.65;11.90;;;;;;;26.05;56.67;99528.44;5040429;28;20072;-70
2021/08/01 04:03:19;;;;;;;22.17;11.38;;;;;;;26.35;55.70;99538.53;5035292;28;20035;-70
2021/08/01 04:05:45;;;;;;;21.60;11.00;;;;;;;26.28;55.81;99537.97;5043685;28;20030;-70
2021/08/01 04:08:10;;;;;;;19.52;10.65;;;;;;;26.43;55.01;99544.53;5040770;28;20036;-70
2021/08/01 04:10:36;;;;;;;19.13;10.85;;;;;;;26.57;54.61;99535.56;5039683;28;20022;-70
2021/08/01 04:13:01;;;;;;;24.55;11.30;;;;;;;26.62;54.97;99542.88;5041054;28;20049;-70
2021/08/01 04:15:27;;;;;;;21.75;11.60;;;;;;;26.63;54.76;99549.94;5038374;28;20045;-70
2021/08/01 04:17:52;;;;;;;23.52;11.40;;;;;;;26.76;54.81;99546.69;5038091;28;20308;-70
2021/08/01 04:20:18;;;;;;;23.67;11.57;;;;;;;26.93;54.17;99547.22;5055091;28;20021;-70
2021/08/01 04:22:43;;;;;;;26.80;11.55;;;;;;;27.08;53.79;99545.59;5039622;28;20037;-70
2021/08/01 04:25:10;;;;;;;19.98;10.05;;;;;;;27.37;52.77;99560.22;5031090;28;20211;-70
2021/08/01 04:27:35;;;;;;;26.58;11.80;;;;;;;27.38;52.80;99550.97;5040222;28;20096;-70
2021/08/01 04:30:01;;;;;;;20.15;10.80;;;;;;;27.51;52.98;99565.88;5030603;28;20145;-70
2021/08/01 04:32:27;;;;;;;26.48;12.52;;;;;;;27.07;54.67;99563.00;5040170;28;20284;-70
2021/08/01 04:34:52;;;;;;;19.30;11.30;;;;;;;26.89;54.81;99573.28;5039014;28;20041;-70
2021/08/01 04:37:18;;;;;;;26.63;11.82;;;;;;;26.99;53.81;99580.66;5039541;28;20327;-70
2021/08/01 04:39:43;;;;;;;34.25;12.98;;;;;;;26.92;54.28;99580.09;5039773;28;20337;-70
2021/08/01 04:42:09;;;;;;;25.73;12.80;;;;;;;26.70;55.40;99588.50;5039265;28;20079;-70
2021/08/01 04:44:34;;;;;;;17.08;13.05;;;;;;;26.54;55.59;99573.31;5039488;28;20064;-70
2021/08/01 04:47:00;;;;;;;19.63;12.93;;;;;;;26.96;54.89;99573.81;5037173;28;20225;-70
2021/08/01 04:49:25;;;;;;;26.77;18.05;;;;;;;26.87;55.13;99572.75;5040440;28;20070;-70
2021/08/01 04:51:50;;;;;;;22.98;13.75;;;;;;;27.00;54.79;99572.22;5038798;28;20037;-70
2021/08/01 04:54:16;;;;;;;26.08;15.70;;;;;;;27.25;54.27;99567.84;5038722;28;20026;-70
2021/08/01 04:56:45;;;;;;;22.75;14.07;;;;;;;27.62;53.34;99570.22;5040239;28;20036;-70
2021/08/01 04:59:12;;;;;;;25.38;15.07;;;;;;;27.60;52.92;99565.06;5039117;28;20053;-70
2021/08/01 05:01:37;;;;;;;21.65;13.95;;;;;;;27.57;53.05;99546.53;5038680;28;20029;-70
2021/08/01 05:04:03;;;;;;;23.83;15.07;;;;;;;27.71;52.58;99554.13;5039178;28;20044;-70
2021/08/01 05:06:28;;;;;;;32.58;15.52;;;;;;;27.91;52.55;99557.56;5033750;28;20052;-70
2021/08/01 05:08:54;;;;;;;24.80;14.80;;;;;;;28.13;52.04;99568.06;5039698;28;20331;-70
2021/08/01 05:11:19;;;;;;;23.15;14.82;;;;;;;28.31;51.55;99552.22;5038615;28;20048;-71
2021/08/01 05:13:45;;;;;;;25.38;15.88;;;;;;;28.32;51.74;99564.72;5038545;28;20041;-71
2021/08/01 05:16:18;;;;;;;28.50;16.30;;;;;;;28.42;51.53;99564.66;5038141;28;20033;-71
2021/08/01 05:18:44;;;;;;;30.73;17.42;;;;;;;28.95;50.37;99570.22;5038752;28;20045;-70
2021/08/01 05:21:10;;;;;;;32.00;16.42;;;;;;;29.09;50.05;99565.72;5039520;28;20039;-71
2021/08/01 05:23:35;;;;;;;25.02;16.35;;;;;;;29.53;49.02;99571.84;5036295;28;20037;-71
2021/08/01 05:26:01;;;;;;;28.83;17.00;;;;;;;29.80;48.21;99571.22;5040094;28;20029;-71
2021/08/01 05:28:26;;;;;;;31.40;17.67;;;;;;;30.01;47.17;99568.22;5038471;28;20045;-71
2021/08/01 05:30:52;;;;;;;29.45;17.95;;;;;;;30.01;47.18;99573.69;5038342;28;20210;-70
2021/08/01 05:33:17;;;;;;;32.42;17.65;;;;;;;29.95;47.36;99580.31;5038562;28;20368;-70
2021/08/01 05:35:43;;;;;;;29.95;17.05;;;;;;;30.21;46.92;99568.00;5038125;28;20029;-70
2021/08/01 05:38:08;;;;;;;32.17;18.08;;;;;;;30.45;45.99;99578.81;5038919;28;20369;-71
2021/08/01 05:40:34;;;;;;;28.80;17.98;;;;;;;30.70;46.04;99575.72;5038162;28;20044;-71
2021/08/01 05:43:00;;;;;;;28.08;18.20;;;;;;;31.12;44.76;99580.16;5038244;28;20037;-71
2021/08/01 05:45:27;;;;;;;26.20;17.40;;;;;;;31.24;44.54;99582.47;5038572;28;20377;-71
2021/08/01 05:47:53;;;;;;;26.45;16.20;;;;;;;31.27;44.32;99564.63;5037856;28;20037;-71
2021/08/01 05:50:19;;;;;;;29.17;15.68;;;;;;;31.78;42.71;99575.41;5041993;28;20242;-71
2021/08/01 05:52:44;;;;;;;22.65;14.93;;;;;;;31.69;43.11;99578.03;5040205;28;20025;-71
2021/08/01 05:55:10;;;;;;;26.13;15.68;;;;;;;32.02;42.08;99575.16;5037656;28;20232;-71
2021/08/01 05:57:36;;;;;;;19.45;13.75;;;;;;;31.74;41.98;99571.66;5037874;28;20068;-71
2021/08/01 06:00:02;;;;;;;24.02;13.77;;;;;;;31.95;41.90;99561.06;5038284;28;20030;-71
2021/08/01 06:02:28;;;;;;;24.40;13.00;;;;;;;31.99;40.94;99548.38;5038572;28;20036;-71
2021/08/01 06:04:53;;;;;;;25.42;13.45;;;;;;;32.15;41.11;99559.78;5041299;28;20214;-71
2021/08/01 06:07:18;;;;;;;26.35;12.98;;;;;;;32.25;40.36;99559.59;5039012;28;20342;-71
2021/08/01 06:09:47;;;;;;;29.35;13.18;;;;;;;32.16;40.42;99564.16;5037376;28;20268;-72
2021/08/01 06:12:13;;;;;;;28.55;12.48;;;;;;;32.50;39.29;99564.50;5037761;28;20061;-71
2021/08/01 06:14:38;;;;;;;20.25;11.45;;;;;;;32.90;38.61;99557.19;5037601;28;20137;-71
2021/08/01 06:17:04;;;;;;;20.48;11.63;;;;;;;32.84;38.26;99563.94;5037358;28;20270;-71
2021/08/01 06:19:29;;;;;;;26.67;12.23;;;;;;;33.09;38.15;99567.94;5035534;28;20045;-71
2021/08/01 06:21:54;;;;;;;23.10;13.50;;;;;;;32.89;38.87;99572.03;5037307;28;20093;-71
2021/08/01 06:24:20;;;;;;;20.42;12.68;;;;;;;32.73;39.09;99561.75;5037282;28;20034;-71
2021/08/01 06:26:45;;;;;;;21.33;13.80;;;;;;;32.67;39.73;99559.13;5038193;28;20108;-71
2021/08/01 06:29:11;;;;;;;21.48;13.02;;;;;;;32.78;39.47;99556.97;5036760;28;20021;-71
2021/08/01 06:31:36;;;;;;;21.63;13.27;;;;;;;32.77;39.35;99535.31;5038413;28;20041;-72
2021/08/01 06:34:02;;;;;;;23.42;12.80;;;;;;;33.11;38.96;99545.69;5037181;28;20049;-71
2021/08/01 06:36:27;;;;;;;26.52;12.23;;;;;;;33.43;38.68;99550.88;5037113;28;20075;-71
2021/08/01 06:38:53;;;;;;;28.02;12.45;;;;;;;33.70;38.25;99538.81;5037832;28;20048;-72
2021/08/01 06:41:18;;;;;;;22.70;12.00;;;;;;;34.33;37.16;99544.91;5036940;28;20040;-71
2021/08/01 06:43:44;;;;;;;27.40;13.13;;;;;;;34.66;36.54;99540.53;5035157;28;20033;-72
2021/08/01 06:46:09;;;;;;;20.40;11.88;;;;;;;34.91;35.18;99519.63;5037731;28;20094;-71
2021/08/01 06:48:35;;;;;;;23.60;11.55;;;;;;;35.06;35.41;99534.78;5036603;28;20418;-71
2021/08/01 06:51:02;;;;;;;22.17;10.93;;;;;;;35.25;34.28;99517.84;5032898;28;20227;-72
2021/08/01 06:53:28;;;;;;;15.95;10.18;;;;;;;35.52;34.00;99525.69;5036884;28;20499;-71
2021/08/01 06:55:53;;;;;;;26.83;11.63;;;;;;;35.20;34.69;99538.13;5035421;28;20033;-72
2021/08/01 06:58:20;;;;;;;21.73;12.80;;;;;;;34.82;34.87;99527.91;5038068;28;20025;-72
2021/08/01 07:00:50;;;;;;;22.48;11.48;;;;;;;34.95;35.23;99533.53;5036800;28;20335;-71
2021/08/01 07:03:15;;;;;;;20.67;11.82;;;;;;;35.21;34.97;99535.03;5034039;28;20367;-72
2021/08/01 07:05:41;;;;;;;19.73;11.00;;;;;;;35.53;33.97;99524.56;5048039;28;20044;-72
2021/08/01 07:08:07;;;;;;;21.40;11.80;;;;;;;35.46;34.09;99522.34;5030473;28;20105;-72
2021/08/01 07:10:32;;;;;;;23.08;11.88;;;;;;;35.63;33.93;99524.19;5038006;28;20100;-71
2021/08/01 07:13:06;;;;;;;19.90;11.20;;;;;;;35.83;33.02;99512.41;5036815;28;20042;-72
2021/08/01 07:15:32;;;;;;;24.23;12.32;;;;;;;35.57;33.27;99506.22;5036425;28;20072;-71
2021/08/01 07:17:58;;;;;;;19.77;10.52;;;;;;;36.15;33.05;99508.09;5037673;28;20034;-72
2021/08/01 07:20:25;;;;;;;18.83;10.35;;;;;;;36.26;32.05;99502.16;5036593;28;20074;-72
2021/08/01 07:22:51;;;;;;;23.30;11.02;;;;;;;36.38;32.37;99511.31;5036463;28;20040;-71
2021/08/01 07:25:17;;;;;;;18.50;10.75;;;;;;;36.71;31.30;99505.00;5038901;28;20036;-72
2021/08/01 07:27:43;;;;;;;28.88;12.60;;;;;;;36.43;32.18;99511.13;5035086;28;20030;-72
2021/08/01 07:30:09;;;;;;;18.15;11.73;;;;;;;36.72;31.79;99501.09;5040654;28;20031;-72
2021/08/01 07:32:34;;;;;;;20.50;10.73;;;;;;;36.98;30.84;99498.84;5041087;28;20099;-72
2021/08/01 07:35:00;;;;;;;20.17;11.10;;;;;;;36.88;31.60;99499.31;5040401;28;20029;-72
2021/08/01 07:37:25;;;;;;;23.60;11.55;;;;;;;36.77;32.02;99489.88;5041401;28;20217;-72
2021/08/01 07:39:51;;;;;;;22.30;10.57;;;;;;;37.25;30.50;99496.59;5040049;28;20071;-72
2021/08/01 07:42:16;;;;;;;20.33;10.63;;;;;;;37.30;30.77;99494.41;5040345;28;20037;-72
2021/08/01 07:44:53;;;;;;;16.23;9.50;;;;;;;37.33;29.58;99503.94;5039497;28;20041;-72
2021/08/01 07:47:21;;;;;;;18.90;10.20;;;;;;;37.44;29.46;99498.75;5040855;28;20045;-72
2021/08/01 07:49:49;;;;;;;17.45;9.80;;;;;;;37.13;29.91;99497.38;5039650;28;20036;-71
2021/08/01 07:52:15;;;;;;;17.02;9.57;;;;;;;37.38;29.95;99481.63;5040019;28;20055;-72
2021/08/01 07:54:41;;;;;;;18.80;9.95;;;;;;;37.65;30.26;99491.97;5056261;28;20266;-72
2021/08/01 07:57:20;;;;;;;21.40;10.10;;;;;;;38.07;29.12;99488.88;5040139;28;20061;-71
2021/08/01 07:59:45;;;;;;;17.48;9.15;;;;;;;38.24;28.29;99487.81;5053236;28;20230;-72
2021/08/01 08:02:11;;;;;;;18.17;9.18;;;;;;;38.74;27.31;99486.44;5040895;28;20048;-72
2021/08/01 08:04:36;;;;;;;18.77;9.70;;;;;;;38.44;28.34;99489.53;5039943;28;20036;-72
2021/08/01 08:07:02;;;;;;;20.20;10.02;;;;;;;38.23;27.91;99486.19;5040350;28;20029;-72
2021/08/01 08:09:27;;;;;;;18.77;10.68;;;;;;;38.47;28.00;99488.84;5040533;28;20090;-71
2021/08/01 08:11:53;;;;;;;24.27;10.52;;;;;;;38.62;27.97;99473.47;5034128;28;20311;-72
2021/08/01 08:14:18;;;;;;;19.35;10.70;;;;;;;38.14;28.41;99479.97;5040948;28;20037;-72
2021/08/01 08:16:44;;;;;;;22.48;9.30;;;;;;;37.69;28.21;99472.78;5039770;28;20041;-72
2021/08/01 08:19:09;;;;;;;18.70;9.13;;;;;;;38.25;27.66;99478.34;5040823;28;20037;-72
2021/08/01 08:21:34;;;;;;;18.65;9.40;;;;;;;38.70;27.84;99472.50;5039367;28;20063;-72
2021/08/01 08:24:00;;;;;;;19.13;9.35;;;;;;;38.83;27.86;99464.91;5039372;28;20029;-72
2021/08/01 08:26:25;;;;;;;16.05;8.68;;;;;;;39.16;26.88;99470.91;5040537;28;20088;-72
2021/08/01 08:28:51;;;;;;;19.85;8.88;;;;;;;39.47;26.42;99466.44;5039741;28;20029;-72
2021/08/01 08:31:16;;;;;;;17.35;10.77;;;;;;;39.50;25.09;99477.66;5040547;28;20079;-72
2021/08/01 08:33:42;;;;;;;16.98;9.15;;;;;;;39.53;25.98;99465.03;5039010;28;20110;-72
2021/08/01 08:36:08;;;;;;;17.38;8.50;;;;;;;39.37;25.76;99445.66;5038833;28;20116;-72
2021/08/01 08:38:33;;;;;;;20.40;9.38;;;;;;;39.41;26.07;99467.91;5039568;28;20097;-72
2021/08/01 08:40:59;;;;;;;20.17;9.00;;;;;;;39.47;24.90;99467.25;5039083;28;20029;-72
2021/08/01 08:43:24;;;;;;;14.68;8.68;;;;;;;39.64;25.79;99457.00;5039869;28;20051;-72
2021/08/01 08:45:52;;;;;;;20.08;8.23;;;;;;;39.68;25.76;99460.63;5039079;28;20033;-72
2021/08/01 08:48:18;;;;;;;13.68;8.38;;;;;;;39.51;24.95;99459.06;5033461;28;20036;-72
2021/08/01 08:50:49;;;;;;;14.20;8.65;;;;;;;39.11;24.47;99451.00;5039507;28;20029;-72
2021/08/01 08:53:19;;;;;;;14.43;8.43;;;;;;;38.66;25.54;99441.16;5038920;28;20115;-71
2021/08/01 08:55:47;;;;;;;16.58;7.82;;;;;;;38.91;25.34;99445.34;5038851;28;20026;-71
2021/08/01 08:58:14;;;;;;;15.57;7.80;;;;;;;39.47;23.53;99431.25;5039928;28;20041;-72
2021/08/01 09:00:41;;;;;;;16.20;8.05;;;;;;;39.86;23.46;99437.66;5038515;28;20258;-72
2021/08/01 09:03:06;;;;;;;16.10;8.20;;;;;;;39.78;23.64;99415.72;5038422;28;20029;-72
2021/08/01 09:05:32;;;;;;;15.80;8.27;;;;;;;39.58;24.65;99426.78;5039901;28;20022;-72
2021/08/01 09:07:57;;;;;;;14.95;7.55;;;;;;;39.33;24.21;99435.66;5038343;28;20041;-72
2021/08/01 09:10:23;;;;;;;17.45;7.68;;;;;;;39.41;24.65;99435.47;5033991;28;20021;-72
2021/08/01 09:12:52;;;;;;;17.75;7.30;;;;;;;39.55;23.83;99426.72;5039338;28;20388;-72
2021/08/01 09:15:20;;;;;;;22.65;9.65;;;;;;;39.63;24.13;99424.91;5037089;28;20247;-72
2021/08/01 09:17:46;;;;;;;16.27;7.57;;;;;;;39.33;23.58;99424.59;5035918;28;20041;-72
2021/08/01 09:20:31;;;;;;;12.27;7.75;;;;;;;39.23;23.49;99423.19;5039124;28;20052;-71
2021/08/01 09:23:00;;;;;;;17.83;6.65;;;;;;;39.16;22.67;99428.56;5038906;28;20163;-72
2021/08/01 09:25:30;;;;;;;19.60;7.00;;;;;;;39.39;22.88;99414.84;5038043;28;20342;-72
2021/08/01 09:28:07;;;;;;;12.18;6.63;;;;;;;39.26;22.78;99409.41;5038383;28;20059;-72
2021/08/01 09:30:56;;;;;;;13.23;6.68;;;;;;;39.31;22.97;99413.88;5035938;28;20251;-71
2021/08/01 09:33:38;;;;;;;17.58;7.50;;;;;;;39.39;24.37;99403.75;5036373;28;20029;-72
2021/08/01 09:36:21;;;;;;;13.38;7.07;;;;;;;39.27;23.79;99405.47;5037997;28;20037;-72
2021/08/01 09:38:58;;;;;;;16.23;7.50;;;;;;;39.08;23.89;99410.97;5036786;28;20038;-72
2021/08/01 09:41:33;;;;;;;19.13;8.20;;;;;;;38.96;24.40;99405.53;5036442;28;20266;-72
2021/08/01 09:44:01;;;;;;;14.98;7.57;;;;;;;38.88;24.20;99403.75;5035712;28;20104;-72
2021/08/01 09:46:43;;;;;;;13.07;8.35;;;;;;;38.80;24.63;99393.66;5039037;28;20029;-72
2021/08/01 09:49:12;;;;;;;21.42;7.88;;;;;;;38.63;24.23;99397.63;5038916;28;20030;-72
2021/08/01 09:51:41;;;;;;;14.95;8.05;;;;;;;38.32;24.58;99401.91;5036631;28;20035;-72
2021/08/01 09:54:08;;;;;;;19.92;6.75;;;;;;;38.49;24.26;99398.00;5037595;28;20057;-72
2021/08/01 09:56:34;;;;;;;12.60;6.88;;;;;;;38.40;23.94;99389.06;5037388;28;20037;-72
2021/08/01 09:59:02;;;;;;;13.30;6.35;;;;;;;38.37;23.05;99366.84;5038193;28;20087;-72
2021/08/01 10:01:27;;;;;;;17.30;6.85;;;;;;;38.59;23.33;99380.88;5038589;28;20030;-71
2021/08/01 10:03:53;;;;;;;14.32;6.55;;;;;;;38.53;23.58;99373.22;5037432;28;20041;-72
2021/08/01 10:06:21;;;;;;;14.27;6.32;;;;;;;38.51;23.59;99372.78;5038866;28;20025;-72
2021/08/01 10:08:54;;;;;;;11.60;6.45;;;;;;;38.50;23.96;99373.94;5037736;28;20056;-71
2021/08/01 10:11:23;;;;;;;13.75;6.70;;;;;;;38.54;23.16;99375.63;5037674;28;20025;-72
2021/08/01 10:13:51;;;;;;;14.88;6.30;;;;;;;38.49;22.97;99372.28;5034735;28;20091;-72
2021/08/01 10:16:17;;;;;;;16.42;6.90;;;;;;;38.49;23.46;99364.00;5038686;28;20037;-72
2021/08/01 10:18:44;;;;;;;10.98;6.72;;;;;;;38.39;23.96;99361.78;5036960;28;20037;-72
2021/08/01 10:21:12;;;;;;;13.18;7.40;;;;;;;38.06;23.71;99349.06;5037678;28;20096;-72
2021/08/01 10:23:44;;;;;;;12.70;6.45;;;;;;;38.20;23.50;99352.22;5037759;28;20132;-72
2021/08/01 10:26:10;;;;;;;12.55;6.93;;;;;;;38.40;23.69;99342.06;5037197;28;20047;-72
2021/08/01 10:28:52;;;;;;;12.90;6.60;;;;;;;38.41;24.01;99335.38;5037470;28;20060;-72
2021/08/01 10:31:27;;;;;;;10.65;6.03;;;;;;;38.42;23.04;99336.16;5033618;28;20330;-72
2021/08/01 10:34:15;;;;;;;12.20;6.28;;;;;;;38.12;23.25;99325.50;5038430;28;20251;-72
2021/08/01 10:36:45;;;;;;;15.10;6.75;;;;;;;37.82;23.66;99325.13;5035285;28;20079;-71
2021/08/01 10:39:13;;;;;;;18.65;6.22;;;;;;;37.65;23.65;99330.94;5037852;28;20048;-71
2021/08/01 10:41:39;;;;;;;16.17;6.90;;;;;;;37.51;23.93;99328.56;5036891;28;20211;-71
2021/08/01 10:44:09;;;;;;;15.90;7.40;;;;;;;37.65;23.45;99304.09;5035683;28;20094;-72
2021/08/01 10:46:36;;;;;;;16.95;6.88;;;;;;;37.84;23.25;99322.00;5053121;28;20319;-71
2021/08/01 10:49:03;;;;;;;17.83;7.13;;;;;;;37.89;23.73;99318.97;5035812;28;20226;-71
2021/08/01 10:51:30;;;;;;;14.23;6.80;;;;;;;37.90;23.66;99307.56;5035668;28;20246;-72
2021/08/01 10:54:32;;;;;;;15.35;7.40;;;;;;;38.09;22.51;99317.13;5036899;28;20033;-71
2021/08/01 10:57:18;;;;;;;18.65;7.00;;;;;;;37.84;22.31;99291.59;4975095;28;20218;-72
2021/08/01 10:59:43;;;;;;;18.30;7.20;;;;;;;37.67;22.42;99304.56;5032845;28;20049;-71
2021/08/01 11:02:18;;;;;;;16.80;6.95;;;;;;;37.83;23.10;99292.75;5036667;28;20028;-71
2021/08/01 11:04:46;;;;;;;13.38;7.70;;;;;;;37.85;22.61;99291.25;5033943;28;20025;-72
2021/08/01 11:07:31;;;;;;;16.88;6.63;;;;;;;37.95;22.10;99284.41;5037453;28;20080;-71
2021/08/01 11:10:06;;;;;;;12.45;6.78;;;;;;;37.79;23.32;99269.75;5016473;28;20069;-72
2021/08/01 11:12:35;;;;;;;15.52;7.13;;;;;;;37.95;22.92;99276.91;5037427;28;20307;-72
2021/08/01 11:15:06;;;;;;;19.20;7.65;;;;;;;38.14;23.25;99273.44;5036530;28;20076;-72
2021/08/01 11:17:43;;;;;;;15.50;7.18;;;;;;;37.92;23.14;99276.81;5034220;28;20298;-71
2021/08/01 11:20:15;;;;;;;18.60;7.18;;;;;;;37.65;23.83;99272.91;5037496;28;20025;-71
2021/08/01 11:22:43;;;;;;;16.30;7.13;;;;;;;37.48;24.18;99245.63;5037498;28;20096;-71